Clare, Iowa
Current Conditions -  °F | °C
As of 4:35 AM on Thursday 18 Dec 2014 (Local Time) from KFOD Reporting Station
Overcast Overcast  
Wind Chill:   Ceiling: 7500
Heat Index: 18°   Visibility: 10mi
Dew Point: 14°   Wind: 7mph
Humidity: 86%   Direction: 90°E
Pressure: 30.26"   Gusts: NA
Location:  42.59°N, 94.35°W
Report Text: KFOD 181035Z AUTO 09006KT 10SM OVC075 M08/M10 A3026 RMK AO1
Loading
Personal Weather Stations






























Interactive Weather Map New forecast layout! Learn more

10-Day Weather Forecast

Advertisements
Track Severe Weather on mobile